sensor_id;sensor_type;location;lat;lon;timestamp;P1;durP1;ratioP1;P2;durP2;ratioP2
34832;SDS011;55941;50.800;4.342;2023-02-03T00:02:08;20.92;;;4.40;;
34832;SDS011;55941;50.800;4.342;2023-02-03T00:04:34;21.40;;;3.67;;
34832;SDS011;55941;50.800;4.342;2023-02-03T00:07:02;16.92;;;3.53;;
34832;SDS011;55941;50.800;4.342;2023-02-03T00:09:32;20.35;;;3.80;;
34832;SDS011;55941;50.800;4.342;2023-02-03T00:12:00;22.92;;;3.10;;
34832;SDS011;55941;50.800;4.342;2023-02-03T00:14:28;25.02;;;4.30;;
34832;SDS011;55941;50.800;4.342;2023-02-03T00:16:54;19.27;;;3.70;;
34832;SDS011;55941;50.800;4.342;2023-02-03T00:19:20;17.83;;;4.03;;
34832;SDS011;55941;50.800;4.342;2023-02-03T00:21:46;19.85;;;3.10;;
34832;SDS011;55941;50.800;4.342;2023-02-03T00:24:31;23.10;;;3.90;;
34832;SDS011;55941;50.800;4.342;2023-02-03T00:26:57;19.52;;;3.67;;
34832;SDS011;55941;50.800;4.342;2023-02-03T00:29:26;20.20;;;3.50;;
34832;SDS011;55941;50.800;4.342;2023-02-03T00:31:52;19.88;;;3.33;;
34832;SDS011;55941;50.800;4.342;2023-02-03T00:34:19;20.45;;;3.63;;
34832;SDS011;55941;50.800;4.342;2023-02-03T00:36:45;16.55;;;3.17;;
34832;SDS011;55941;50.800;4.342;2023-02-03T00:39:13;22.38;;;3.25;;
34832;SDS011;55941;50.800;4.342;2023-02-03T00:41:39;24.80;;;4.57;;
34832;SDS011;55941;50.800;4.342;2023-02-03T00:44:06;27.73;;;4.63;;
34832;SDS011;55941;50.800;4.342;2023-02-03T00:46:32;19.75;;;3.55;;
34832;SDS011;55941;50.800;4.342;2023-02-03T00:49:00;19.50;;;2.88;;
34832;SDS011;55941;50.800;4.342;2023-02-03T00:51:27;18.75;;;3.65;;
34832;SDS011;55941;50.800;4.342;2023-02-03T00:53:53;22.27;;;2.92;;
34832;SDS011;55941;50.800;4.342;2023-02-03T00:56:18;23.00;;;3.65;;
34832;SDS011;55941;50.800;4.342;2023-02-03T00:58:44;17.27;;;3.55;;
34832;SDS011;55941;50.800;4.342;2023-02-03T01:01:10;24.00;;;3.53;;
34832;SDS011;55941;50.800;4.342;2023-02-03T01:03:36;19.83;;;3.45;;
34832;SDS011;55941;50.800;4.342;2023-02-03T01:06:09;22.33;;;3.55;;
34832;SDS011;55941;50.800;4.342;2023-02-03T01:08:40;22.75;;;3.50;;
34832;SDS011;55941;50.800;4.342;2023-02-03T01:11:09;24.48;;;3.83;;
34832;SDS011;55941;50.800;4.342;2023-02-03T01:13:56;25.02;;;3.38;;
34832;SDS011;55941;50.800;4.342;2023-02-03T01:18:55;21.83;;;3.22;;
34832;SDS011;55941;50.800;4.342;2023-02-03T01:21:22;18.02;;;2.85;;
34832;SDS011;55941;50.800;4.342;2023-02-03T01:23:52;17.75;;;2.63;;
34832;SDS011;55941;50.800;4.342;2023-02-03T01:26:20;20.65;;;3.55;;
34832;SDS011;55941;50.800;4.342;2023-02-03T01:28:54;20.38;;;2.80;;
34832;SDS011;55941;50.800;4.342;2023-02-03T01:31:26;23.10;;;3.42;;
34832;SDS011;55941;50.800;4.342;2023-02-03T01:33:58;22.48;;;3.53;;
34832;SDS011;55941;50.800;4.342;2023-02-03T01:38:54;19.60;;;2.67;;
34832;SDS011;55941;50.800;4.342;2023-02-03T01:41:23;23.52;;;3.38;;
34832;SDS011;55941;50.800;4.342;2023-02-03T01:43:56;29.00;;;3.28;;
34832;SDS011;55941;50.800;4.342;2023-02-03T01:46:30;26.23;;;3.58;;
34832;SDS011;55941;50.800;4.342;2023-02-03T01:49:26;19.20;;;2.90;;
34832;SDS011;55941;50.800;4.342;2023-02-03T01:52:01;16.48;;;2.83;;
34832;SDS011;55941;50.800;4.342;2023-02-03T01:54:34;16.10;;;2.53;;
34832;SDS011;55941;50.800;4.342;2023-02-03T01:57:24;23.38;;;3.25;;
34832;SDS011;55941;50.800;4.342;2023-02-03T01:59:55;25.73;;;3.20;;
34832;SDS011;55941;50.800;4.342;2023-02-03T02:02:23;18.65;;;3.47;;
34832;SDS011;55941;50.800;4.342;2023-02-03T02:07:31;19.50;;;2.87;;
34832;SDS011;55941;50.800;4.342;2023-02-03T02:10:01;23.92;;;3.45;;
34832;SDS011;55941;50.800;4.342;2023-02-03T02:12:27;23.25;;;3.17;;
34832;SDS011;55941;50.800;4.342;2023-02-03T02:14:53;31.05;;;3.17;;
34832;SDS011;55941;50.800;4.342;2023-02-03T02:22:27;19.83;;;3.13;;
34832;SDS011;55941;50.800;4.342;2023-02-03T02:31:05;11.27;;;2.47;;
34832;SDS011;55941;50.800;4.342;2023-02-03T02:33:41;25.17;;;2.72;;
34832;SDS011;55941;50.800;4.342;2023-02-03T02:36:58;19.08;;;3.35;;
34832;SDS011;55941;50.800;4.342;2023-02-03T02:39:31;17.48;;;2.90;;
34832;SDS011;55941;50.800;4.342;2023-02-03T02:44:50;18.08;;;2.67;;
34832;SDS011;55941;50.800;4.342;2023-02-03T02:47:23;16.75;;;2.88;;
34832;SDS011;55941;50.800;4.342;2023-02-03T02:52:18;21.88;;;2.50;;
34832;SDS011;55941;50.800;4.342;2023-02-03T02:57:19;24.33;;;3.00;;
34832;SDS011;55941;50.800;4.342;2023-02-03T02:59:51;16.58;;;2.58;;
34832;SDS011;55941;50.800;4.342;2023-02-03T03:02:20;17.67;;;2.83;;
34832;SDS011;55941;50.800;4.342;2023-02-03T03:04:52;26.27;;;3.33;;
34832;SDS011;55941;50.800;4.342;2023-02-03T03:07:20;20.70;;;3.15;;
34832;SDS011;55941;50.800;4.342;2023-02-03T03:12:30;20.70;;;3.22;;
34832;SDS011;55941;50.800;4.342;2023-02-03T03:15:04;12.00;;;2.35;;
34832;SDS011;55941;50.800;4.342;2023-02-03T03:17:40;17.42;;;2.30;;
34832;SDS011;55941;50.800;4.342;2023-02-03T03:20:12;15.77;;;2.45;;
34832;SDS011;55941;50.800;4.342;2023-02-03T03:22:47;19.98;;;2.45;;
34832;SDS011;55941;50.800;4.342;2023-02-03T03:25:19;23.02;;;2.83;;
34832;SDS011;55941;50.800;4.342;2023-02-03T03:27:53;16.40;;;2.50;;
34832;SDS011;55941;50.800;4.342;2023-02-03T03:30:26;18.10;;;2.85;;
34832;SDS011;55941;50.800;4.342;2023-02-03T03:33:03;15.93;;;2.08;;
34832;SDS011;55941;50.800;4.342;2023-02-03T03:35:38;13.45;;;2.30;;
34832;SDS011;55941;50.800;4.342;2023-02-03T03:38:48;19.42;;;3.72;;
34832;SDS011;55941;50.800;4.342;2023-02-03T03:44:10;18.17;;;2.25;;
34832;SDS011;55941;50.800;4.342;2023-02-03T03:46:41;11.13;;;2.15;;
34832;SDS011;55941;50.800;4.342;2023-02-03T03:49:18;20.00;;;2.58;;
34832;SDS011;55941;50.800;4.342;2023-02-03T03:51:57;25.00;;;3.63;;
34832;SDS011;55941;50.800;4.342;2023-02-03T03:54:27;14.73;;;2.38;;
34832;SDS011;55941;50.800;4.342;2023-02-03T03:57:06;19.50;;;2.10;;
34832;SDS011;55941;50.800;4.342;2023-02-03T03:59:48;19.63;;;2.72;;
34832;SDS011;55941;50.800;4.342;2023-02-03T04:02:15;14.38;;;2.30;;
34832;SDS011;55941;50.800;4.342;2023-02-03T04:09:44;12.65;;;2.53;;
34832;SDS011;55941;50.800;4.342;2023-02-03T04:12:15;15.77;;;1.88;;
34832;SDS011;55941;50.800;4.342;2023-02-03T04:14:47;9.50;;;1.77;;
34832;SDS011;55941;50.800;4.342;2023-02-03T04:17:15;17.65;;;2.75;;
34832;SDS011;55941;50.800;4.342;2023-02-03T04:19:44;12.68;;;2.13;;
34832;SDS011;55941;50.800;4.342;2023-02-03T04:22:12;21.25;;;2.50;;
34832;SDS011;55941;50.800;4.342;2023-02-03T04:24:40;14.15;;;2.20;;
34832;SDS011;55941;50.800;4.342;2023-02-03T04:27:08;10.73;;;1.98;;
34832;SDS011;55941;50.800;4.342;2023-02-03T04:29:35;15.95;;;2.03;;
34832;SDS011;55941;50.800;4.342;2023-02-03T04:32:01;14.10;;;2.40;;
34832;SDS011;55941;50.800;4.342;2023-02-03T04:34:26;11.85;;;1.85;;
34832;SDS011;55941;50.800;4.342;2023-02-03T04:36:52;14.13;;;1.70;;
34832;SDS011;55941;50.800;4.342;2023-02-03T04:39:20;16.10;;;1.80;;
34832;SDS011;55941;50.800;4.342;2023-02-03T04:41:48;12.80;;;1.92;;
34832;SDS011;55941;50.800;4.342;2023-02-03T04:44:17;11.23;;;2.00;;
34832;SDS011;55941;50.800;4.342;2023-02-03T04:46:43;11.00;;;1.40;;
34832;SDS011;55941;50.800;4.342;2023-02-03T04:51:41;13.80;;;1.92;;
34832;SDS011;55941;50.800;4.342;2023-02-03T04:54:11;9.35;;;1.48;;
34832;SDS011;55941;50.800;4.342;2023-02-03T04:56:37;12.95;;;1.50;;
34832;SDS011;55941;50.800;4.342;2023-02-03T04:59:04;10.77;;;2.05;;
34832;SDS011;55941;50.800;4.342;2023-02-03T05:01:31;16.83;;;2.08;;
34832;SDS011;55941;50.800;4.342;2023-02-03T05:06:29;11.70;;;1.80;;
34832;SDS011;55941;50.800;4.342;2023-02-03T05:11:28;14.18;;;2.03;;
34832;SDS011;55941;50.800;4.342;2023-02-03T05:13:56;10.75;;;1.85;;
34832;SDS011;55941;50.800;4.342;2023-02-03T05:16:22;13.07;;;2.00;;
34832;SDS011;55941;50.800;4.342;2023-02-03T05:18:48;11.98;;;1.92;;
34832;SDS011;55941;50.800;4.342;2023-02-03T05:21:17;13.45;;;2.38;;
34832;SDS011;55941;50.800;4.342;2023-02-03T05:23:43;9.00;;;1.33;;
34832;SDS011;55941;50.800;4.342;2023-02-03T05:26:11;19.08;;;2.60;;
34832;SDS011;55941;50.800;4.342;2023-02-03T05:28:40;9.43;;;1.50;;
34832;SDS011;55941;50.800;4.342;2023-02-03T05:31:06;9.38;;;2.42;;
34832;SDS011;55941;50.800;4.342;2023-02-03T05:33:32;11.85;;;2.17;;
34832;SDS011;55941;50.800;4.342;2023-02-03T05:35:57;8.32;;;1.70;;
34832;SDS011;55941;50.800;4.342;2023-02-03T05:38:26;11.45;;;1.70;;
34832;SDS011;55941;50.800;4.342;2023-02-03T05:40:53;10.20;;;1.63;;
34832;SDS011;55941;50.800;4.342;2023-02-03T05:43:37;9.25;;;2.20;;
34832;SDS011;55941;50.800;4.342;2023-02-03T05:46:03;12.00;;;1.70;;
34832;SDS011;55941;50.800;4.342;2023-02-03T05:50:59;11.15;;;1.52;;
34832;SDS011;55941;50.800;4.342;2023-02-03T05:55:54;11.65;;;1.92;;
34832;SDS011;55941;50.800;4.342;2023-02-03T05:58:21;15.02;;;2.38;;
34832;SDS011;55941;50.800;4.342;2023-02-03T06:00:47;12.82;;;1.95;;
34832;SDS011;55941;50.800;4.342;2023-02-03T06:03:16;10.20;;;2.00;;
34832;SDS011;55941;50.800;4.342;2023-02-03T06:05:43;10.13;;;1.90;;
34832;SDS011;55941;50.800;4.342;2023-02-03T06:08:10;8.40;;;1.75;;
34832;SDS011;55941;50.800;4.342;2023-02-03T06:10:37;8.75;;;1.88;;
34832;SDS011;55941;50.800;4.342;2023-02-03T06:13:13;11.68;;;1.80;;
34832;SDS011;55941;50.800;4.342;2023-02-03T06:15:41;18.83;;;2.08;;
34832;SDS011;55941;50.800;4.342;2023-02-03T06:18:09;12.55;;;1.88;;
34832;SDS011;55941;50.800;4.342;2023-02-03T06:20:37;8.98;;;1.80;;
34832;SDS011;55941;50.800;4.342;2023-02-03T06:23:03;12.35;;;1.83;;
34832;SDS011;55941;50.800;4.342;2023-02-03T06:25:30;14.57;;;2.25;;
34832;SDS011;55941;50.800;4.342;2023-02-03T06:27:57;16.25;;;1.92;;
34832;SDS011;55941;50.800;4.342;2023-02-03T06:30:24;10.82;;;1.67;;
34832;SDS011;55941;50.800;4.342;2023-02-03T06:32:51;17.88;;;2.13;;
34832;SDS011;55941;50.800;4.342;2023-02-03T06:35:17;10.65;;;1.90;;
34832;SDS011;55941;50.800;4.342;2023-02-03T06:37:43;9.48;;;2.15;;
34832;SDS011;55941;50.800;4.342;2023-02-03T06:40:09;16.00;;;2.58;;
34832;SDS011;55941;50.800;4.342;2023-02-03T06:45:07;13.25;;;1.75;;
34832;SDS011;55941;50.800;4.342;2023-02-03T06:47:33;13.27;;;1.70;;
34832;SDS011;55941;50.800;4.342;2023-02-03T06:49:59;13.15;;;2.00;;
34832;SDS011;55941;50.800;4.342;2023-02-03T06:52:25;10.73;;;2.33;;
34832;SDS011;55941;50.800;4.342;2023-02-03T06:55:01;18.63;;;2.33;;
34832;SDS011;55941;50.800;4.342;2023-02-03T06:57:29;14.75;;;2.22;;
34832;SDS011;55941;50.800;4.342;2023-02-03T06:59:55;13.95;;;2.03;;
34832;SDS011;55941;50.800;4.342;2023-02-03T07:02:21;21.92;;;2.72;;
34832;SDS011;55941;50.800;4.342;2023-02-03T07:04:47;16.50;;;1.83;;
34832;SDS011;55941;50.800;4.342;2023-02-03T07:07:13;14.52;;;2.58;;
34832;SDS011;55941;50.800;4.342;2023-02-03T07:09:39;8.98;;;1.98;;
34832;SDS011;55941;50.800;4.342;2023-02-03T07:12:05;16.05;;;2.40;;
34832;SDS011;55941;50.800;4.342;2023-02-03T07:14:32;10.98;;;1.85;;
34832;SDS011;55941;50.800;4.342;2023-02-03T07:17:03;15.35;;;1.80;;
34832;SDS011;55941;50.800;4.342;2023-02-03T07:19:30;14.90;;;1.65;;
34832;SDS011;55941;50.800;4.342;2023-02-03T07:21:56;12.23;;;1.83;;
34832;SDS011;55941;50.800;4.342;2023-02-03T07:24:21;12.75;;;2.40;;
34832;SDS011;55941;50.800;4.342;2023-02-03T07:26:47;11.25;;;2.20;;
34832;SDS011;55941;50.800;4.342;2023-02-03T07:29:13;20.38;;;2.15;;
34832;SDS011;55941;50.800;4.342;2023-02-03T07:31:39;11.27;;;2.00;;
34832;SDS011;55941;50.800;4.342;2023-02-03T07:34:05;13.88;;;2.05;;
34832;SDS011;55941;50.800;4.342;2023-02-03T07:36:31;14.25;;;2.00;;
34832;SDS011;55941;50.800;4.342;2023-02-03T07:38:57;12.90;;;1.95;;
34832;SDS011;55941;50.800;4.342;2023-02-03T07:41:23;18.95;;;2.28;;
34832;SDS011;55941;50.800;4.342;2023-02-03T07:43:49;21.85;;;2.65;;
34832;SDS011;55941;50.800;4.342;2023-02-03T07:46:15;13.40;;;2.47;;
34832;SDS011;55941;50.800;4.342;2023-02-03T07:48:41;14.00;;;2.63;;
34832;SDS011;55941;50.800;4.342;2023-02-03T07:51:07;11.02;;;2.17;;
34832;SDS011;55941;50.800;4.342;2023-02-03T07:53:32;22.70;;;2.63;;
34832;SDS011;55941;50.800;4.342;2023-02-03T07:55:59;17.23;;;2.15;;
34832;SDS011;55941;50.800;4.342;2023-02-03T07:58:26;18.02;;;2.50;;
34832;SDS011;55941;50.800;4.342;2023-02-03T08:00:53;11.52;;;2.05;;
34832;SDS011;55941;50.800;4.342;2023-02-03T08:03:18;23.15;;;2.20;;
34832;SDS011;55941;50.800;4.342;2023-02-03T08:05:44;16.38;;;2.65;;
34832;SDS011;55941;50.800;4.342;2023-02-03T08:08:10;18.35;;;2.50;;
34832;SDS011;55941;50.800;4.342;2023-02-03T08:10:36;15.32;;;2.30;;
34832;SDS011;55941;50.800;4.342;2023-02-03T08:13:02;17.00;;;2.20;;
34832;SDS011;55941;50.800;4.342;2023-02-03T08:15:28;15.82;;;2.22;;
34832;SDS011;55941;50.800;4.342;2023-02-03T08:17:54;22.20;;;2.40;;
34832;SDS011;55941;50.800;4.342;2023-02-03T08:20:19;11.70;;;1.80;;
34832;SDS011;55941;50.800;4.342;2023-02-03T08:22:45;22.95;;;2.58;;
34832;SDS011;55941;50.800;4.342;2023-02-03T08:25:11;12.65;;;1.92;;
34832;SDS011;55941;50.800;4.342;2023-02-03T08:27:37;15.35;;;2.38;;
34832;SDS011;55941;50.800;4.342;2023-02-03T08:30:03;15.40;;;2.22;;
34832;SDS011;55941;50.800;4.342;2023-02-03T08:32:31;13.43;;;2.08;;
34832;SDS011;55941;50.800;4.342;2023-02-03T08:34:57;13.43;;;2.50;;
34832;SDS011;55941;50.800;4.342;2023-02-03T08:37:23;14.73;;;2.15;;
34832;SDS011;55941;50.800;4.342;2023-02-03T08:39:50;13.95;;;2.20;;
34832;SDS011;55941;50.800;4.342;2023-02-03T08:42:16;14.55;;;2.92;;
34832;SDS011;55941;50.800;4.342;2023-02-03T08:44:42;13.93;;;2.20;;
34832;SDS011;55941;50.800;4.342;2023-02-03T08:47:09;16.48;;;2.50;;
34832;SDS011;55941;50.800;4.342;2023-02-03T08:49:35;7.60;;;1.77;;
34832;SDS011;55941;50.800;4.342;2023-02-03T08:52:03;9.85;;;2.70;;
34832;SDS011;55941;50.800;4.342;2023-02-03T08:54:30;12.18;;;2.10;;
34832;SDS011;55941;50.800;4.342;2023-02-03T08:56:57;11.30;;;1.98;;
34832;SDS011;55941;50.800;4.342;2023-02-03T08:59:22;10.38;;;1.52;;
34832;SDS011;55941;50.800;4.342;2023-02-03T09:01:49;9.10;;;1.92;;
34832;SDS011;55941;50.800;4.342;2023-02-03T09:04:15;12.18;;;1.80;;
34832;SDS011;55941;50.800;4.342;2023-02-03T09:06:49;15.77;;;2.20;;
34832;SDS011;55941;50.800;4.342;2023-02-03T09:11:46;11.05;;;1.80;;
34832;SDS011;55941;50.800;4.342;2023-02-03T09:14:12;10.32;;;1.60;;
34832;SDS011;55941;50.800;4.342;2023-02-03T09:16:38;11.98;;;2.78;;
34832;SDS011;55941;50.800;4.342;2023-02-03T09:19:05;11.82;;;2.35;;
34832;SDS011;55941;50.800;4.342;2023-02-03T09:21:31;13.60;;;2.25;;
34832;SDS011;55941;50.800;4.342;2023-02-03T09:24:01;8.25;;;1.98;;
34832;SDS011;55941;50.800;4.342;2023-02-03T09:26:28;11.75;;;1.98;;
34832;SDS011;55941;50.800;4.342;2023-02-03T09:28:54;14.32;;;2.10;;
34832;SDS011;55941;50.800;4.342;2023-02-03T09:31:22;12.70;;;1.80;;
34832;SDS011;55941;50.800;4.342;2023-02-03T09:33:47;22.77;;;3.30;;
34832;SDS011;55941;50.800;4.342;2023-02-03T09:36:13;14.02;;;2.50;;
34832;SDS011;55941;50.800;4.342;2023-02-03T09:38:40;22.70;;;2.42;;
34832;SDS011;55941;50.800;4.342;2023-02-03T09:46:15;14.38;;;2.90;;
34832;SDS011;55941;50.800;4.342;2023-02-03T09:48:49;18.52;;;2.20;;
34832;SDS011;55941;50.800;4.342;2023-02-03T09:54:37;11.65;;;2.58;;
34832;SDS011;55941;50.800;4.342;2023-02-03T09:57:23;11.60;;;2.90;;
34832;SDS011;55941;50.800;4.342;2023-02-03T09:59:51;11.23;;;2.47;;
34832;SDS011;55941;50.800;4.342;2023-02-03T10:05:19;10.40;;;2.25;;
34832;SDS011;55941;50.800;4.342;2023-02-03T10:10:43;9.88;;;2.55;;
34832;SDS011;55941;50.800;4.342;2023-02-03T10:16:27;18.38;;;3.40;;
34832;SDS011;55941;50.800;4.342;2023-02-03T10:19:08;14.52;;;2.50;;
34832;SDS011;55941;50.800;4.342;2023-02-03T10:21:57;12.40;;;2.70;;
34832;SDS011;55941;50.800;4.342;2023-02-03T10:24:41;10.88;;;2.53;;
34832;SDS011;55941;50.800;4.342;2023-02-03T10:27:20;18.17;;;2.20;;
34832;SDS011;55941;50.800;4.342;2023-02-03T10:29:59;13.20;;;2.25;;
34832;SDS011;55941;50.800;4.342;2023-02-03T10:32:30;8.25;;;1.98;;
34832;SDS011;55941;50.800;4.342;2023-02-03T10:34:57;15.75;;;3.03;;
34832;SDS011;55941;50.800;4.342;2023-02-03T10:37:29;14.40;;;2.47;;
34832;SDS011;55941;50.800;4.342;2023-02-03T10:40:10;11.90;;;2.50;;
34832;SDS011;55941;50.800;4.342;2023-02-03T10:42:41;17.25;;;2.38;;
34832;SDS011;55941;50.800;4.342;2023-02-03T10:45:30;10.93;;;2.13;;
34832;SDS011;55941;50.800;4.342;2023-02-03T10:48:01;8.05;;;1.88;;
34832;SDS011;55941;50.800;4.342;2023-02-03T10:50:28;13.27;;;2.92;;
34832;SDS011;55941;50.800;4.342;2023-02-03T10:55:47;12.43;;;2.90;;
34832;SDS011;55941;50.800;4.342;2023-02-03T10:58:26;13.70;;;2.53;;
34832;SDS011;55941;50.800;4.342;2023-02-03T11:01:13;9.23;;;2.58;;
34832;SDS011;55941;50.800;4.342;2023-02-03T11:03:41;8.82;;;2.05;;
34832;SDS011;55941;50.800;4.342;2023-02-03T11:06:13;10.48;;;2.65;;
34832;SDS011;55941;50.800;4.342;2023-02-03T11:08:41;14.52;;;2.90;;
34832;SDS011;55941;50.800;4.342;2023-02-03T11:11:20;10.48;;;2.67;;
34832;SDS011;55941;50.800;4.342;2023-02-03T11:16:27;15.30;;;2.60;;
34832;SDS011;55941;50.800;4.342;2023-02-03T11:19:03;8.82;;;1.85;;
34832;SDS011;55941;50.800;4.342;2023-02-03T11:29:23;13.57;;;2.35;;
34832;SDS011;55941;50.800;4.342;2023-02-03T11:31:54;7.28;;;2.10;;
34832;SDS011;55941;50.800;4.342;2023-02-03T11:34:26;10.80;;;2.60;;
34832;SDS011;55941;50.800;4.342;2023-02-03T11:36:56;9.95;;;2.50;;
34832;SDS011;55941;50.800;4.342;2023-02-03T11:41:54;12.27;;;2.58;;
34832;SDS011;55941;50.800;4.342;2023-02-03T11:44:27;11.45;;;2.50;;
34832;SDS011;55941;50.800;4.342;2023-02-03T11:47:01;14.43;;;2.35;;
34832;SDS011;55941;50.800;4.342;2023-02-03T11:52:31;10.00;;;2.45;;
34832;SDS011;55941;50.800;4.342;2023-02-03T11:55:20;9.57;;;2.10;;
34832;SDS011;55941;50.800;4.342;2023-02-03T12:09:14;19.15;;;2.35;;
34832;SDS011;55941;50.800;4.342;2023-02-03T12:25:26;14.70;;;2.25;;
34832;SDS011;55941;50.800;4.342;2023-02-03T12:28:16;15.32;;;2.38;;
34832;SDS011;55941;50.800;4.342;2023-02-03T12:30:57;11.50;;;2.20;;
34832;SDS011;55941;50.800;4.342;2023-02-03T12:33:49;8.27;;;2.20;;
34832;SDS011;55941;50.800;4.342;2023-02-03T12:36:35;9.05;;;2.10;;
34832;SDS011;55941;50.800;4.342;2023-02-03T12:42:02;23.02;;;2.92;;
34832;SDS011;55941;50.800;4.342;2023-02-03T12:44:50;17.02;;;2.95;;
34832;SDS011;55941;50.800;4.342;2023-02-03T12:47:22;16.48;;;2.72;;
34832;SDS011;55941;50.800;4.342;2023-02-03T12:53:44;8.02;;;2.35;;
34832;SDS011;55941;50.800;4.342;2023-02-03T12:55:46;12.73;;;2.53;;
34832;SDS011;55941;50.800;4.342;2023-02-03T13:01:15;15.23;;;2.47;;
34832;SDS011;55941;50.800;4.342;2023-02-03T13:03:55;8.80;;;1.80;;
34832;SDS011;55941;50.800;4.342;2023-02-03T13:06:31;10.57;;;2.15;;
34832;SDS011;55941;50.800;4.342;2023-02-03T13:19:58;13.00;;;2.88;;
34832;SDS011;55941;50.800;4.342;2023-02-03T13:22:29;13.65;;;2.50;;
34832;SDS011;55941;50.800;4.342;2023-02-03T13:24:56;12.80;;;2.58;;
34832;SDS011;55941;50.800;4.342;2023-02-03T13:33:06;11.50;;;2.92;;
34832;SDS011;55941;50.800;4.342;2023-02-03T13:41:43;9.40;;;2.60;;
34832;SDS011;55941;50.800;4.342;2023-02-03T13:44:19;15.65;;;3.25;;
34832;SDS011;55941;50.800;4.342;2023-02-03T13:46:53;9.55;;;2.58;;
34832;SDS011;55941;50.800;4.342;2023-02-03T13:49:31;9.65;;;2.40;;
34832;SDS011;55941;50.800;4.342;2023-02-03T13:52:00;14.48;;;2.83;;
34832;SDS011;55941;50.800;4.342;2023-02-03T13:57:00;12.55;;;2.92;;
34832;SDS011;55941;50.800;4.342;2023-02-03T13:59:43;15.13;;;3.00;;
34832;SDS011;55941;50.800;4.342;2023-02-03T14:02:44;15.13;;;3.17;;
34832;SDS011;55941;50.800;4.342;2023-02-03T14:05:07;17.88;;;3.05;;
34832;SDS011;55941;50.800;4.342;2023-02-03T14:13:55;14.90;;;3.28;;
34832;SDS011;55941;50.800;4.342;2023-02-03T14:16:36;13.95;;;2.95;;
34832;SDS011;55941;50.800;4.342;2023-02-03T14:19:03;5.30;;;2.58;;
34832;SDS011;55941;50.800;4.342;2023-02-03T14:21:47;11.65;;;3.13;;
34832;SDS011;55941;50.800;4.342;2023-02-03T14:24:18;11.43;;;2.95;;
34832;SDS011;55941;50.800;4.342;2023-02-03T14:26:46;9.57;;;3.05;;
34832;SDS011;55941;50.800;4.342;2023-02-03T14:29:26;10.95;;;3.40;;
34832;SDS011;55941;50.800;4.342;2023-02-03T14:32:04;10.30;;;3.00;;
34832;SDS011;55941;50.800;4.342;2023-02-03T14:34:36;9.93;;;3.20;;
34832;SDS011;55941;50.800;4.342;2023-02-03T14:37:25;18.95;;;3.45;;
34832;SDS011;55941;50.800;4.342;2023-02-03T14:51:30;14.93;;;3.08;;
34832;SDS011;55941;50.800;4.342;2023-02-03T14:57:49;11.98;;;2.88;;
34832;SDS011;55941;50.800;4.342;2023-02-03T15:05:41;11.98;;;3.13;;
34832;SDS011;55941;50.800;4.342;2023-02-03T15:11:15;5.18;;;1.70;;
34832;SDS011;55941;50.800;4.342;2023-02-03T15:16:44;8.90;;;2.45;;
34832;SDS011;55941;50.800;4.342;2023-02-03T15:19:14;7.05;;;1.95;;
34832;SDS011;55941;50.800;4.342;2023-02-03T15:21:42;7.65;;;1.80;;
34832;SDS011;55941;50.800;4.342;2023-02-03T15:24:15;6.20;;;2.00;;
34832;SDS011;55941;50.800;4.342;2023-02-03T15:26:47;11.40;;;2.03;;
34832;SDS011;55941;50.800;4.342;2023-02-03T15:31:59;12.15;;;1.88;;
34832;SDS011;55941;50.800;4.342;2023-02-03T15:34:43;7.88;;;1.80;;
34832;SDS011;55941;50.800;4.342;2023-02-03T15:42:20;5.57;;;2.13;;
34832;SDS011;55941;50.800;4.342;2023-02-03T15:44:59;10.63;;;2.17;;
34832;SDS011;55941;50.800;4.342;2023-02-03T15:48:13;8.68;;;2.42;;
34832;SDS011;55941;50.800;4.342;2023-02-03T15:50:41;8.93;;;2.35;;
34832;SDS011;55941;50.800;4.342;2023-02-03T15:53:27;10.45;;;2.70;;
34832;SDS011;55941;50.800;4.342;2023-02-03T15:56:00;11.82;;;2.10;;
34832;SDS011;55941;50.800;4.342;2023-02-03T15:58:29;9.68;;;3.10;;
34832;SDS011;55941;50.800;4.342;2023-02-03T16:01:02;14.25;;;2.92;;
34832;SDS011;55941;50.800;4.342;2023-02-03T16:06:34;14.15;;;3.45;;
34832;SDS011;55941;50.800;4.342;2023-02-03T16:08:54;7.55;;;2.38;;
34832;SDS011;55941;50.800;4.342;2023-02-03T16:11:35;10.70;;;2.47;;
34832;SDS011;55941;50.800;4.342;2023-02-03T16:14:03;5.78;;;2.30;;
34832;SDS011;55941;50.800;4.342;2023-02-03T16:16:42;9.32;;;3.17;;
34832;SDS011;55941;50.800;4.342;2023-02-03T16:19:22;7.82;;;2.60;;
34832;SDS011;55941;50.800;4.342;2023-02-03T16:36:11;11.65;;;2.40;;
34832;SDS011;55941;50.800;4.342;2023-02-03T16:38:57;9.48;;;2.85;;
34832;SDS011;55941;50.800;4.342;2023-02-03T16:41:45;7.40;;;3.08;;
34832;SDS011;55941;50.800;4.342;2023-02-03T16:44:30;13.38;;;3.40;;
34832;SDS011;55941;50.800;4.342;2023-02-03T16:50:15;10.43;;;3.95;;
34832;SDS011;55941;50.800;4.342;2023-02-03T16:53:05;8.52;;;3.20;;
34832;SDS011;55941;50.800;4.342;2023-02-03T16:55:39;7.68;;;2.72;;
34832;SDS011;55941;50.800;4.342;2023-02-03T16:58:06;14.38;;;3.28;;
34832;SDS011;55941;50.800;4.342;2023-02-03T17:00:35;10.82;;;3.53;;
34832;SDS011;55941;50.800;4.342;2023-02-03T17:03:12;16.52;;;4.68;;
34832;SDS011;55941;50.800;4.342;2023-02-03T17:05:42;10.13;;;3.17;;
34832;SDS011;55941;50.800;4.342;2023-02-03T17:08:09;8.52;;;2.90;;
34832;SDS011;55941;50.800;4.342;2023-02-03T17:10:39;14.32;;;3.20;;
34832;SDS011;55941;50.800;4.342;2023-02-03T17:13:13;9.75;;;3.25;;
34832;SDS011;55941;50.800;4.342;2023-02-03T17:15:46;8.18;;;3.00;;
34832;SDS011;55941;50.800;4.342;2023-02-03T17:18:16;13.80;;;3.58;;
34832;SDS011;55941;50.800;4.342;2023-02-03T17:20:45;7.28;;;3.40;;
34832;SDS011;55941;50.800;4.342;2023-02-03T17:23:14;12.32;;;3.78;;
34832;SDS011;55941;50.800;4.342;2023-02-03T17:25:42;10.20;;;3.70;;
34832;SDS011;55941;50.800;4.342;2023-02-03T17:28:10;10.20;;;3.10;;
34832;SDS011;55941;50.800;4.342;2023-02-03T17:30:39;8.85;;;3.47;;
34832;SDS011;55941;50.800;4.342;2023-02-03T17:33:05;7.93;;;3.38;;
34832;SDS011;55941;50.800;4.342;2023-02-03T17:35:41;11.25;;;3.88;;
34832;SDS011;55941;50.800;4.342;2023-02-03T17:38:08;16.15;;;4.32;;
34832;SDS011;55941;50.800;4.342;2023-02-03T17:40:43;13.07;;;3.90;;
34832;SDS011;55941;50.800;4.342;2023-02-03T17:43:09;8.18;;;2.92;;
34832;SDS011;55941;50.800;4.342;2023-02-03T17:45:40;13.25;;;3.90;;
34832;SDS011;55941;50.800;4.342;2023-02-03T17:48:06;9.20;;;3.60;;
34832;SDS011;55941;50.800;4.342;2023-02-03T17:50:32;11.23;;;4.03;;
34832;SDS011;55941;50.800;4.342;2023-02-03T17:53:00;9.07;;;3.80;;
34832;SDS011;55941;50.800;4.342;2023-02-03T17:55:29;18.63;;;4.22;;
34832;SDS011;55941;50.800;4.342;2023-02-03T17:57:56;10.35;;;4.13;;
34832;SDS011;55941;50.800;4.342;2023-02-03T18:00:22;11.15;;;3.83;;
34832;SDS011;55941;50.800;4.342;2023-02-03T18:02:50;11.30;;;3.63;;
34832;SDS011;55941;50.800;4.342;2023-02-03T18:05:21;12.82;;;4.10;;
34832;SDS011;55941;50.800;4.342;2023-02-03T18:07:56;8.30;;;3.47;;
34832;SDS011;55941;50.800;4.342;2023-02-03T18:10:22;15.30;;;3.70;;
34832;SDS011;55941;50.800;4.342;2023-02-03T18:12:49;9.23;;;4.53;;
34832;SDS011;55941;50.800;4.342;2023-02-03T18:15:14;10.77;;;4.57;;
34832;SDS011;55941;50.800;4.342;2023-02-03T18:17:43;14.52;;;4.90;;
34832;SDS011;55941;50.800;4.342;2023-02-03T18:20:11;15.70;;;5.90;;
34832;SDS011;55941;50.800;4.342;2023-02-03T18:22:37;15.27;;;5.72;;
34832;SDS011;55941;50.800;4.342;2023-02-03T18:25:03;15.32;;;5.32;;
34832;SDS011;55941;50.800;4.342;2023-02-03T18:27:30;20.50;;;6.18;;
34832;SDS011;55941;50.800;4.342;2023-02-03T18:29:56;18.00;;;5.57;;